Wenona, Illinois
Current Conditions -  °F | °C
As of 1:15 PM on Friday 28 Nov 2014 (Local Time) from KC75 Reporting Station
Clear Clear  
Wind Chill: 25°   Ceiling: Unl
Heat Index: 34°   Visibility: 10mi
Dew Point: 26°   Wind: 13mph
Humidity: 73%   Direction: 180°S
Pressure: 29.99"   Gusts: 20mph
Location:  41.05°N, 89.05°W
Report Text: KC75 281915Z AUTO 18011G17KT 10SM CLR 01/M03 A2999 RMK AO2 T00131031
Loading
Personal Weather Stations






























Interactive Weather Map New forecast layout! Learn more

10-Day Weather Forecast

Advertisements
Track Severe Weather on mobile